Time;durP1;ratioP1;P1;durP2;ratioP2;P2;SDS_P1;SDS_P2;PMS_P1;PMS_P2;Temp;Humidity;BMP_temperature;BMP_pressure;BME280_temperature;BME280_humidity;BME280_pressure;Samples;Min_cycle;Max_cycle;Signal;HPM_P1;HPM_P2
2023/05/18 07:01:19;;;;;;;2.15;1.67;;;16.00;99.90;15.80;102705.00;;;;6278008;22;20183;-69
2023/05/18 07:03:48;;;;;;;0.47;0.47;;;14.60;99.90;18.70;102682.00;;;;6278588;22;20173;-69
2023/05/18 07:06:14;;;;;;;0.20;0.20;;;15.30;99.90;20.30;102654.00;;;;6278551;22;20203;-69
2023/05/18 07:08:40;;;;;;;1.17;0.65;;;16.50;99.90;20.40;102670.00;;;;6278464;22;20577;-69
2023/05/18 07:11:09;;;;;;;0.55;0.30;;;17.70;99.90;22.80;102621.00;;;;6278770;22;20138;-67
2023/05/18 07:13:44;;;;;;;0.10;0.10;;;18.80;99.90;21.80;102622.00;;;;6278312;22;20141;-69
2023/05/18 07:16:18;;;;;;;0.40;0.40;;;18.50;99.90;19.40;102735.00;;;;6278696;22;20148;-67
2023/05/18 07:18:44;;;;;;;1.48;1.48;;;17.90;99.90;22.30;102719.00;;;;6250922;22;20133;-69
2023/05/18 07:21:27;;;;;;;0.43;0.20;;;18.10;99.90;21.70;102739.00;;;;6251326;22;20153;-67
2023/05/18 07:24:01;;;;;;;1.92;1.80;;;18.60;99.90;16.70;102785.00;;;;6278904;22;20171;-68
2023/05/18 07:26:33;;;;;;;0.20;0.20;;;16.90;99.90;20.90;102750.00;;;;6251779;22;20159;-69
2023/05/18 07:28:59;;;;;;;2.72;1.05;;;16.80;99.90;21.00;102780.00;;;;6225465;22;20165;-69
2023/05/18 07:31:26;;;;;;;0.32;0.32;;;17.90;99.90;21.50;102772.00;;;;6278309;22;20152;-70
2023/05/18 07:33:52;;;;;;;0.32;0.32;;;18.20;99.90;22.40;102763.00;;;;6225772;22;20160;-70
2023/05/18 07:36:21;;;;;;;1.95;1.17;;;18.90;99.90;17.90;102774.00;;;;6278409;22;20195;-68
2023/05/18 07:38:53;;;;;;;0.55;0.55;;;17.10;99.90;19.70;102736.00;;;;6251249;22;20137;-70
2023/05/18 07:41:23;;;;;;;0.32;0.32;;;17.20;99.90;19.80;102774.00;;;;6227019;22;20180;-70
2023/05/18 07:43:53;;;;;;;0.30;0.30;;;16.70;99.90;19.30;102788.00;;;;6252091;22;20565;-70
2023/05/18 07:46:24;;;;;;;0.10;0.10;;;16.40;99.90;20.60;102697.00;;;;6251574;22;20216;-70
2023/05/18 07:48:50;;;;;;;6.90;6.50;;;17.40;99.90;22.80;102748.00;;;;6250938;22;20148;-70
2023/05/18 07:51:19;;;;;;;0.10;0.10;;;18.80;99.90;23.70;102777.00;;;;6278237;22;20145;-70
2023/05/18 07:53:45;;;;;;;0.25;0.25;;;19.90;99.90;20.90;102795.00;;;;6225786;22;20203;-70
2023/05/18 07:56:11;;;;;;;0.20;0.20;;;18.70;99.90;20.70;102796.00;;;;6278268;22;20251;-70
2023/05/18 07:58:37;;;;;;;0.10;0.10;;;17.60;99.90;22.20;102787.00;;;;6248105;22;20990;-70
2023/05/18 08:01:09;;;;;;;0.10;0.10;;;18.50;99.90;21.00;102806.00;;;;6272498;22;20215;-70
2023/05/18 08:03:35;;;;;;;0.28;0.28;;;18.80;99.90;22.80;102797.00;;;;6277827;22;20574;-70
2023/05/18 08:06:01;;;;;;;0.10;0.10;;;19.30;99.90;21.50;102798.00;;;;6276443;22;20145;-70
2023/05/18 08:08:48;;;;;;;0.57;0.57;;;19.00;99.90;20.90;102820.00;;;;6251085;22;20544;-70
2023/05/18 08:11:43;;;;;;;1.35;1.33;;;19.00;99.90;20.20;102800.00;;;;6276635;22;20133;-69
2023/05/18 08:14:10;;;;;;;1.00;0.73;;;17.70;99.90;20.00;102819.00;;;;6251706;22;20913;-71
2023/05/18 08:16:39;;;;;;;0.32;0.32;;;18.00;99.90;21.30;102797.00;;;;6250786;22;20176;-71
2023/05/18 08:19:05;;;;;;;1.00;0.73;;;18.00;99.90;23.30;102779.00;;;;6276258;22;20506;-70
2023/05/18 08:21:31;;;;;;;1.00;0.85;;;19.20;99.90;22.90;102788.00;;;;6277818;22;20229;-71
2023/05/18 08:24:08;;;;;;;0.38;0.38;;;19.80;99.90;22.40;102780.00;;;;6276560;22;20142;-72
2023/05/18 08:26:40;;;;;;;0.80;0.43;;;19.50;99.90;20.60;102765.00;;;;6275980;22;20222;-72
2023/05/18 08:29:11;;;;;;;0.20;0.20;;;19.10;99.90;22.90;102757.00;;;;6276235;22;20168;-71
2023/05/18 08:31:46;;;;;;;1.30;0.35;;;19.20;99.90;21.40;102770.00;;;;6249350;22;20153;-73
2023/05/18 08:34:12;;;;;;;1.08;0.95;;;19.20;99.90;21.70;102770.00;;;;6276244;22;20141;-71
2023/05/18 08:36:39;;;;;;;0.75;0.75;;;19.60;99.90;21.20;102777.00;;;;6275845;22;20176;-71
2023/05/18 08:39:11;;;;;;;0.10;0.10;;;19.30;99.90;21.10;102773.00;;;;6277822;22;20194;-70
2023/05/18 08:41:59;;;;;;;0.20;0.20;;;18.70;99.90;21.10;102774.00;;;;6275851;22;20153;-71
2023/05/18 08:44:46;;;;;;;0.50;0.50;;;18.70;99.90;19.10;102778.00;;;;6277293;22;20141;-70
2023/05/18 08:47:24;;;;;;;1.38;1.17;;;17.90;99.90;18.10;102782.00;;;;6275370;22;20170;-72
2023/05/18 08:49:56;;;;;;;1.13;1.13;;;16.50;99.90;19.70;102714.00;;;;6251732;22;20501;-71
2023/05/18 08:52:36;;;;;;;0.65;0.65;;;16.90;99.90;21.20;102753.00;;;;6276046;22;20141;-71
2023/05/18 08:55:09;;;;;;;0.38;0.38;;;17.50;99.90;21.60;102746.00;;;;6245474;22;20161;-72
2023/05/18 08:58:16;;;;;;;0.35;0.35;;;18.40;99.90;19.30;102766.00;;;;6273694;22;20149;-70
2023/05/18 09:00:58;;;;;;;0.75;0.68;;;17.20;99.90;21.50;102749.00;;;;6247966;22;20227;-70
2023/05/18 09:04:04;;;;;;;3.10;0.55;;;18.00;99.90;21.40;102753.00;;;;6249794;22;20185;-70
2023/05/18 09:07:29;;;;;;;0.43;0.43;;;18.40;99.90;21.90;102747.00;;;;6271586;22;20167;-70
2023/05/18 09:10:42;;;;;;;1.17;0.85;;;18.80;99.90;19.70;102704.00;;;;6230252;22;20161;-70
2023/05/18 09:13:44;;;;;;;1.20;0.67;;;17.50;99.90;17.80;102772.00;;;;6250230;22;20167;-70
2023/05/18 09:17:03;;;;;;;0.70;0.70;;;16.30;99.90;19.60;102727.00;;;;6248219;22;20159;-70
2023/05/18 09:20:09;;;;;;;0.37;0.37;;;16.70;99.90;19.40;102759.00;;;;6274827;22;20492;-70
2023/05/18 09:23:14;;;;;;;0.30;0.30;;;16.70;99.90;19.20;102755.00;;;;6272988;22;20169;-70
2023/05/18 09:26:36;;;;;;;1.77;1.63;;;16.30;99.90;17.60;102769.00;;;;6248769;22;20167;-70
2023/05/18 09:29:53;;;;;;;0.23;0.23;;;16.50;99.90;18.90;102758.00;;;;6248892;22;20602;-70
2023/05/18 09:32:45;;;;;;;0.60;0.60;;;16.30;99.90;19.30;102749.00;;;;6274459;22;20234;-70
2023/05/18 09:36:06;;;;;;;0.53;0.50;;;16.30;99.90;19.30;102746.00;;;;6274929;22;20143;-70
2023/05/18 09:43:19;;;;;;;2.43;1.03;;;17.30;99.90;19.20;102746.00;;;;6276171;22;20179;-70
2023/05/18 09:46:33;;;;;;;0.23;0.23;;;17.00;99.90;19.80;102741.00;;;;6273512;22;20144;-70
2023/05/18 09:49:41;;;;;;;0.40;0.40;;;16.90;99.90;21.30;102738.00;;;;6249099;22;20165;-70
2023/05/18 09:52:25;;;;;;;0.20;0.20;;;17.60;99.90;23.00;102715.00;;;;6248804;22;20659;-70
2023/05/18 09:59:07;;;;;;;0.55;0.55;;;18.80;99.90;19.80;102728.00;;;;6274031;22;20497;-71
2023/05/18 10:01:47;;;;;;;1.63;0.70;;;17.10;99.90;21.00;102734.00;;;;6275688;22;20157;-69
2023/05/18 10:04:20;;;;;;;0.10;0.10;;;17.60;99.90;21.30;102679.00;;;;6274101;22;20214;-70
2023/05/18 10:06:54;;;;;;;1.00;0.88;;;17.80;99.90;19.20;102741.00;;;;6275394;22;20228;-70
2023/05/18 10:09:25;;;;;;;2.28;0.70;;;17.70;99.90;20.10;102737.00;;;;6274256;22;20139;-70
2023/05/18 10:11:51;;;;;;;0.47;0.47;;;17.50;99.90;21.60;102713.00;;;;6275904;22;20164;-70
2023/05/18 10:14:29;;;;;;;0.63;0.63;;;18.20;99.90;22.40;102665.00;;;;6274191;22;20569;-71
2023/05/18 10:17:00;;;;;;;1.58;1.48;;;19.30;99.90;18.20;102733.00;;;;6274404;22;20223;-71
2023/05/18 10:19:37;;;;;;;2.60;1.70;;;17.60;99.90;18.00;102707.00;;;;6273083;22;20141;-71
2023/05/18 10:33:55;;;;;;;1.17;1.07;;;16.90;99.90;18.50;102717.00;;;;5079675;28;20532;-67
2023/05/18 10:36:42;;;;;;;0.60;0.60;;;16.70;99.90;21.40;102700.00;;;;5072682;28;20208;-67
2023/05/18 10:39:11;;;;;;;5.87;2.10;;;17.70;99.90;19.50;102678.00;;;;5058148;28;20177;-68
2023/05/18 10:41:46;;;;;;;0.83;0.83;;;17.40;99.90;19.70;102703.00;;;;5073036;28;20192;-68
2023/05/18 10:44:15;;;;;;;0.93;0.93;;;17.10;99.90;20.80;102691.00;;;;5057649;28;20189;-72
2023/05/18 10:47:10;;;;;;;0.17;0.17;;;17.60;99.90;21.70;102687.00;;;;5064827;28;20188;-67
2023/05/18 10:49:36;;;;;;;3.60;1.80;;;18.30;99.90;19.00;102692.00;;;;5048962;28;20217;-67
2023/05/18 10:52:30;;;;;;;0.10;0.10;;;17.70;99.90;20.70;102689.00;;;;5073207;28;20217;-67
2023/05/18 10:55:00;;;;;;;0.20;0.20;;;17.40;99.90;22.20;102678.00;;;;5074077;28;20178;-67
2023/05/18 10:57:37;;;;;;;0.50;0.50;;;18.20;99.90;18.90;102664.00;;;;5065389;28;20246;-66
2023/05/18 11:00:37;;;;;;;0.60;0.47;;;17.60;99.90;22.00;102669.00;;;;5073196;28;20212;-66
2023/05/18 11:03:28;;;;;;;3.60;1.07;;;18.10;99.90;21.50;102668.00;;;;5047427;28;20235;-67
2023/05/18 11:06:37;;;;;;;0.40;0.40;;;17.90;99.90;21.90;102629.00;;;;5057698;28;20669;-67
2023/05/18 11:09:31;;;;;;;0.20;0.20;;;18.70;99.90;22.00;102667.00;;;;5046362;28;20206;-67
2023/05/18 11:12:20;;;;;;;0.10;0.10;;;19.20;99.90;21.60;102648.00;;;;5028492;28;20313;-66
2023/05/18 11:15:13;;;;;;;2.28;0.40;;;18.60;99.90;20.20;102681.00;;;;5042320;28;20194;-67
2023/05/18 11:17:42;;;;;;;0.50;0.50;;;18.70;99.90;20.80;102668.00;;;;5057178;28;20173;-67
2023/05/18 11:20:45;;;;;;;1.80;1.67;;;18.20;99.90;20.00;102668.00;;;;5056733;28;20264;-67
2023/05/18 11:24:26;;;;;;;2.97;1.35;;;18.10;99.90;21.00;102662.00;;;;5056949;28;20178;-66
2023/05/18 11:27:23;;;;;;;2.78;1.10;;;18.40;99.90;20.10;102674.00;;;;5072531;28;20559;-66
2023/05/18 11:29:54;;;;;;;0.20;0.20;;;18.20;99.90;20.00;102678.00;;;;5052754;28;20285;-66
2023/05/18 11:33:17;;;;;;;0.20;0.20;;;18.20;99.90;21.00;102654.00;;;;5056317;28;20644;-66
2023/05/18 11:36:13;;;;;;;0.38;0.38;;;18.50;99.90;22.90;102635.00;;;;5056906;28;20604;-66
2023/05/18 11:39:52;;;;;;;0.65;0.45;;;19.30;99.90;23.90;102641.00;;;;5064338;28;20181;-66
2023/05/18 11:42:38;;;;;;;1.98;1.85;;;20.00;99.90;21.00;102634.00;;;;5020960;28;20194;-66
2023/05/18 11:45:32;;;;;;;1.05;0.60;;;19.40;99.90;21.30;102653.00;;;;5013047;28;20697;-66
2023/05/18 11:48:04;;;;;;;0.20;0.20;;;18.70;99.90;20.50;102641.00;;;;4996286;28;20203;-66
2023/05/18 11:50:32;;;;;;;1.88;1.77;;;18.30;99.90;20.30;102644.00;;;;5005810;28;20272;-66
2023/05/18 11:53:36;;;;;;;0.47;0.40;;;18.40;99.90;20.20;102647.00;;;;5032074;28;20195;-66
2023/05/18 11:59:28;;;;;;;1.60;1.50;;;17.70;99.90;19.30;102603.00;;;;5031281;28;20222;-66
2023/05/18 12:02:26;;;;;;;1.10;1.07;;;17.50;99.90;19.30;102656.00;;;;5033928;28;20190;-66
2023/05/18 12:04:55;;;;;;;4.10;1.33;;;17.20;99.90;19.30;102646.00;;;;5035257;28;20213;-66
2023/05/18 12:07:23;;;;;;;2.03;1.33;;;17.30;99.90;20.10;102646.00;;;;5050925;28;20196;-65
2023/05/18 12:09:49;;;;;;;0.97;0.87;;;17.30;99.90;19.50;102641.00;;;;5043890;28;20184;-65
2023/05/18 12:12:45;;;;;;;1.07;1.07;;;17.10;99.90;21.10;102638.00;;;;5044233;28;20568;-66
2023/05/18 12:15:13;;;;;;;0.27;0.27;;;17.60;99.90;20.40;102646.00;;;;5048301;28;20712;-65
2023/05/18 12:18:28;;;;;;;0.10;0.10;;;17.70;99.90;21.50;102615.00;;;;5041972;28;20217;-65
2023/05/18 12:21:11;;;;;;;0.10;0.10;;;18.10;99.90;21.00;102625.00;;;;5049731;28;20650;-65
2023/05/18 12:24:03;;;;;;;1.30;1.20;;;17.80;99.90;20.00;102617.00;;;;5041846;28;20186;-65
2023/05/18 12:26:55;;;;;;;2.27;0.83;;;17.70;99.90;21.50;102578.00;;;;5042623;28;20184;-65
2023/05/18 12:29:46;;;;;;;3.43;0.70;;;18.00;99.90;21.00;102625.00;;;;5050130;28;20181;-65
2023/05/18 12:32:30;;;;;;;3.63;1.53;;;18.20;99.90;21.60;102614.00;;;;5054809;28;20236;-66
2023/05/18 12:35:39;;;;;;;1.80;1.43;;;18.20;99.90;19.70;102639.00;;;;5037377;28;20189;-65
2023/05/18 12:38:04;;;;;;;0.67;0.67;;;18.00;99.90;19.80;102605.00;;;;5041436;28;20280;-66
2023/05/18 12:40:47;;;;;;;2.17;1.97;;;17.40;99.90;18.70;102639.00;;;;5042253;28;20272;-65
2023/05/18 12:43:13;;;;;;;1.10;1.03;;;17.10;99.90;20.10;102632.00;;;;5040928;28;20224;-65
2023/05/18 12:45:39;;;;;;;1.83;0.83;;;17.10;99.90;19.60;102635.00;;;;5043074;28;20200;-65
2023/05/18 12:48:08;;;;;;;0.60;0.60;;;17.40;99.90;20.10;102631.00;;;;5025687;28;20200;-65
2023/05/18 12:50:35;;;;;;;0.10;0.10;;;17.30;99.90;21.00;102621.00;;;;5041263;28;20261;-65
2023/05/18 12:53:04;;;;;;;0.73;0.73;;;17.60;99.90;20.70;102604.00;;;;5042806;28;20212;-65
2023/05/18 12:55:31;;;;;;;1.37;1.37;;;17.60;99.90;21.30;102617.00;;;;5041483;28;20213;-65
2023/05/18 12:58:19;;;;;;;0.93;0.93;;;17.90;99.90;21.80;102581.00;;;;5025460;28;20187;-65
2023/05/18 13:00:48;;;;;;;0.80;0.80;;;18.30;99.90;20.90;102614.00;;;;5057983;28;20279;-65
2023/05/18 13:03:23;;;;;;;4.43;1.37;;;18.30;99.90;21.40;102609.00;;;;5025060;28;20194;-65
2023/05/18 13:06:06;;;;;;;0.90;0.90;;;18.00;99.90;21.40;102608.00;;;;5035847;28;20188;-65
2023/05/18 13:08:34;;;;;;;2.00;1.27;;;18.20;99.90;20.20;102617.00;;;;5025622;28;20267;-65
2023/05/18 13:11:07;;;;;;;1.73;1.43;;;18.00;99.90;19.90;102593.00;;;;5032883;28;20204;-65
2023/05/18 13:13:34;;;;;;;1.67;1.47;;;17.40;99.90;19.60;102611.00;;;;5031692;28;20582;-65
2023/05/18 13:16:00;;;;;;;2.43;2.03;;;17.40;99.90;19.70;102623.00;;;;5033391;28;20671;-65
2023/05/18 13:18:30;;;;;;;0.60;0.60;;;17.30;99.90;19.80;102593.00;;;;5033902;28;20186;-65
2023/05/18 13:20:57;;;;;;;0.73;0.73;;;17.20;99.90;20.10;102589.00;;;;5033096;28;20266;-65
2023/05/18 13:23:28;;;;;;;0.33;0.33;;;17.50;99.90;20.70;102601.00;;;;5032026;28;20192;-65
2023/05/18 13:25:55;;;;;;;0.10;0.10;;;17.50;99.90;21.80;102571.00;;;;5033779;28;20643;-65
2023/05/18 13:28:22;;;;;;;1.83;1.70;;;17.80;99.90;21.40;102594.00;;;;5030451;28;20199;-65
2023/05/18 13:30:51;;;;;;;0.73;0.73;;;18.10;99.90;20.00;102609.00;;;;5018668;28;20236;-65
2023/05/18 13:33:22;;;;;;;0.80;0.80;;;17.70;99.90;20.90;102602.00;;;;5036851;28;20224;-65
2023/05/18 13:35:58;;;;;;;0.40;0.40;;;17.80;99.90;20.20;102583.00;;;;5024733;28;20182;-65
2023/05/18 13:38:44;;;;;;;1.73;1.20;;;17.50;99.90;19.00;102613.00;;;;5032266;28;20204;-65
2023/05/18 13:41:13;;;;;;;0.10;0.10;;;17.10;99.90;21.00;102589.00;;;;5029022;28;20224;-65
2023/05/18 13:43:41;;;;;;;0.80;0.50;;;17.20;99.90;20.40;102598.00;;;;5057136;28;20195;-65
2023/05/18 13:46:07;;;;;;;0.33;0.33;;;17.40;99.90;20.40;102585.00;;;;5032252;28;20277;-65
2023/05/18 13:48:53;;;;;;;0.20;0.20;;;17.40;99.90;21.60;102567.00;;;;5032898;28;20624;-65
2023/05/18 13:51:19;;;;;;;1.27;1.27;;;17.70;99.90;19.60;102593.00;;;;5031990;28;20208;-65
2023/05/18 13:53:47;;;;;;;1.63;1.20;;;17.40;99.90;19.60;102586.00;;;;5014373;28;20291;-65
2023/05/18 13:56:13;;;;;;;1.10;1.00;;;17.10;99.90;19.30;102588.00;;;;5015523;28;20258;-65
2023/05/18 13:58:39;;;;;;;4.07;2.30;;;17.00;99.90;19.20;102580.00;;;;5033481;28;20599;-65
2023/05/18 14:01:06;;;;;;;1.07;0.97;;;17.10;99.90;19.90;102574.00;;;;5033657;28;20233;-65
2023/05/18 14:03:36;;;;;;;0.37;0.37;;;17.10;99.90;19.80;102564.00;;;;5032205;28;20188;-65
2023/05/18 14:06:04;;;;;;;3.37;1.73;;;17.10;99.90;19.30;102572.00;;;;5032054;28;20697;-65
2023/05/18 14:08:31;;;;;;;2.23;2.00;;;17.10;99.90;19.70;102569.00;;;;5032248;28;20188;-65
2023/05/18 14:10:57;;;;;;;0.20;0.20;;;17.10;99.90;20.30;102553.00;;;;5015605;28;20208;-65
2023/05/18 14:13:23;;;;;;;0.60;0.60;;;17.30;99.90;20.30;102517.00;;;;5015479;28;20207;-65
2023/05/18 14:15:49;;;;;;;0.57;0.57;;;17.50;99.90;20.60;102525.00;;;;5032066;28;20260;-65
2023/05/18 14:18:21;;;;;;;1.60;1.20;;;17.70;99.90;20.70;102556.00;;;;5037602;28;20193;-65
2023/05/18 14:20:53;;;;;;;0.73;0.70;;;17.90;99.90;21.00;102551.00;;;;5030948;28;20279;-65
2023/05/18 14:23:42;;;;;;;3.93;1.50;;;17.90;99.90;20.10;102563.00;;;;5030921;28;20254;-65
2023/05/18 14:26:15;;;;;;;1.23;1.13;;;17.90;99.90;20.10;102559.00;;;;5031700;28;20185;-65
2023/05/18 14:28:42;;;;;;;3.57;1.60;;;17.50;99.90;20.40;102522.00;;;;5031553;28;20210;-65
2023/05/18 14:31:08;;;;;;;1.57;1.50;;;17.40;99.90;20.40;102556.00;;;;5040501;28;20197;-64
2023/05/18 14:33:37;;;;;;;0.10;0.10;;;17.60;99.90;20.70;102500.00;;;;5032804;28;20524;-65
2023/05/18 14:36:09;;;;;;;0.40;0.40;;;17.70;99.90;20.60;102531.00;;;;5031483;28;20211;-65
2023/05/18 14:38:40;;;;;;;3.00;1.97;;;17.60;99.90;19.70;102555.00;;;;5030982;28;20290;-65
2023/05/18 14:41:08;;;;;;;2.47;1.80;;;17.60;99.90;19.70;102543.00;;;;5031607;28;20185;-65
2023/05/18 14:43:42;;;;;;;0.47;0.47;;;17.40;99.90;20.80;102511.00;;;;5035609;28;20202;-65
2023/05/18 14:46:13;;;;;;;1.23;1.17;;;17.60;99.90;20.20;102535.00;;;;5030328;28;20189;-65
2023/05/18 14:48:39;;;;;;;0.43;0.43;;;17.60;99.90;20.50;102537.00;;;;5016668;28;20212;-65
2023/05/18 14:51:17;;;;;;;1.77;1.37;;;17.50;99.90;20.20;102540.00;;;;5022058;28;20186;-65
2023/05/18 14:53:50;;;;;;;0.10;0.10;;;17.50;99.90;21.20;102520.00;;;;5025113;28;20188;-65
2023/05/18 14:56:39;;;;;;;2.37;1.27;;;17.60;99.90;19.60;102508.00;;;;5031299;28;20188;-65
2023/05/18 14:59:22;;;;;;;0.10;0.10;;;17.40;99.90;21.00;102530.00;;;;5030469;28;20292;-67
2023/05/18 15:01:48;;;;;;;0.10;0.10;;;17.40;99.90;21.40;102524.00;;;;5021171;28;20658;-66
2023/05/18 15:04:16;;;;;;;1.20;1.10;;;17.70;99.90;21.70;102532.00;;;;5036354;28;20184;-66
2023/05/18 15:06:56;;;;;;;0.97;0.97;;;18.10;99.90;20.30;102537.00;;;;5042571;28;20208;-65
2023/05/18 15:09:42;;;;;;;1.20;1.10;;;17.70;99.90;20.60;102526.00;;;;5055236;28;20252;-67
2023/05/18 15:12:10;;;;;;;2.93;2.33;;;17.70;99.90;19.20;102546.00;;;;5041281;28;20270;-66
2023/05/18 15:14:36;;;;;;;0.40;0.40;;;17.40;99.90;20.00;102534.00;;;;5041338;28;20204;-67
2023/05/18 15:17:07;;;;;;;0.63;0.40;;;17.30;99.90;20.40;102526.00;;;;5038952;28;20210;-66
2023/05/18 15:19:42;;;;;;;0.70;0.70;;;17.30;99.90;20.70;102531.00;;;;5041595;28;20226;-66
2023/05/18 15:22:08;;;;;;;3.50;0.93;;;17.60;99.90;19.70;102541.00;;;;5043106;28;20192;-66
2023/05/18 15:24:43;;;;;;;0.50;0.50;;;17.50;99.90;19.90;102538.00;;;;5044789;28;20222;-66
2023/05/18 15:27:12;;;;;;;1.63;1.53;;;17.40;99.90;21.40;102493.00;;;;5028087;28;20729;-66
2023/05/18 15:29:58;;;;;;;0.60;0.60;;;17.80;99.90;19.80;102517.00;;;;5043006;28;20636;-66
2023/05/18 15:32:31;;;;;;;2.80;1.33;;;17.50;99.90;20.10;102527.00;;;;5059129;28;20225;-66
2023/05/18 15:35:06;;;;;;;3.50;1.50;;;17.70;99.90;19.40;102529.00;;;;5059831;28;20554;-66
2023/05/18 15:37:39;;;;;;;1.03;1.03;;;17.40;99.90;20.40;102518.00;;;;5058572;28;20187;-66
2023/05/18 15:40:13;;;;;;;2.13;0.57;;;17.40;99.90;20.90;102479.00;;;;5043896;28;20228;-66
2023/05/18 15:42:49;;;;;;;0.50;0.50;;;17.70;99.90;20.60;102495.00;;;;5042576;28;20194;-66
2023/05/18 15:45:32;;;;;;;0.10;0.10;;;17.70;99.90;20.80;102493.00;;;;5049557;28;20196;-66
2023/05/18 15:47:58;;;;;;;1.07;1.07;;;17.60;99.90;19.90;102513.00;;;;5043414;28;20240;-66
2023/05/18 15:50:25;;;;;;;0.30;0.30;;;17.50;99.90;21.20;102450.00;;;;5042273;28;20681;-66
2023/05/18 15:53:01;;;;;;;1.07;1.07;;;17.60;99.90;20.00;102480.00;;;;5049101;28;20562;-66
2023/05/18 15:55:34;;;;;;;1.07;1.07;;;17.60;99.90;19.90;102498.00;;;;5042939;28;20196;-66
2023/05/18 15:58:20;;;;;;;1.53;1.43;;;17.60;99.90;20.30;102495.00;;;;5043457;28;20194;-66
2023/05/18 16:01:20;;;;;;;3.77;1.70;;;17.60;99.90;19.70;102502.00;;;;5057847;28;20239;-66
2023/05/18 16:04:08;;;;;;;0.80;0.80;;;17.30;99.90;20.60;102453.00;;;;5042947;28;20193;-66
2023/05/18 16:06:46;;;;;;;0.80;0.60;;;17.50;99.90;20.30;102507.00;;;;5050744;28;20205;-65
2023/05/18 16:09:12;;;;;;;1.57;1.07;;;17.50;99.90;20.00;102481.00;;;;5041343;28;20549;-65
2023/05/18 16:12:05;;;;;;;0.73;0.73;;;17.20;99.90;19.30;102501.00;;;;5026785;28;20262;-66
2023/05/18 16:14:44;;;;;;;1.40;0.77;;;17.10;99.90;19.10;102506.00;;;;5059243;28;20182;-66
2023/05/18 16:17:36;;;;;;;0.63;0.63;;;16.80;99.90;18.90;102508.00;;;;5049217;28;20253;-66
2023/05/18 16:20:08;;;;;;;10.10;7.07;;;16.70;99.90;19.20;102498.00;;;;5033359;28;20314;-66
2023/05/18 16:22:56;;;;;;;3.07;0.97;;;16.70;99.90;19.70;102490.00;;;;5049547;28;20195;-66
2023/05/18 16:25:25;;;;;;;0.20;0.20;;;16.80;99.90;19.60;102500.00;;;;5059422;28;20201;-65
2023/05/18 16:28:01;;;;;;;0.30;0.30;;;16.80;99.90;20.00;102486.00;;;;5057817;28;20217;-66
2023/05/18 16:30:44;;;;;;;1.20;1.10;;;16.90;99.90;19.70;102495.00;;;;5043263;28;20186;-65
2023/05/18 16:33:28;;;;;;;0.40;0.40;;;16.90;99.90;20.20;102495.00;;;;5026177;28;20214;-66
2023/05/18 16:35:57;;;;;;;0.63;0.63;;;17.00;99.90;19.40;102487.00;;;;5042365;28;20236;-65
2023/05/18 16:38:46;;;;;;;0.20;0.20;;;16.90;99.90;19.60;102478.00;;;;5041549;28;20206;-67
2023/05/18 16:41:30;;;;;;;1.20;1.10;;;16.90;99.90;19.20;102498.00;;;;5042330;28;20274;-65
2023/05/18 16:44:23;;;;;;;0.20;0.20;;;16.70;99.90;19.10;102491.00;;;;5042928;28;20650;-65
2023/05/18 16:47:16;;;;;;;0.57;0.57;;;16.70;99.90;19.30;102450.00;;;;5042036;28;20565;-66
2023/05/18 16:49:49;;;;;;;0.50;0.50;;;16.60;99.90;19.30;102507.00;;;;5049386;28;20182;-65
2023/05/18 16:52:34;;;;;;;1.43;1.03;;;16.60;99.90;19.10;102465.00;;;;5015585;28;20217;-66
2023/05/18 16:55:08;;;;;;;2.43;1.87;;;16.60;99.90;18.50;102509.00;;;;5027793;28;20197;-65
2023/05/18 16:57:57;;;;;;;3.70;0.73;;;16.40;99.90;18.90;102508.00;;;;5024902;28;20634;-66
2023/05/18 17:00:40;;;;;;;5.00;0.83;;;16.40;99.90;19.40;102509.00;;;;5033859;28;20197;-66
2023/05/18 17:03:24;;;;;;;3.40;1.70;;;16.60;99.90;19.40;102499.00;;;;5021771;28;20541;-66
2023/05/18 17:06:13;;;;;;;3.47;1.03;;;16.70;99.90;18.90;102510.00;;;;5016791;28;20628;-66
2023/05/18 17:08:58;;;;;;;0.87;0.60;;;16.60;99.90;19.20;102495.00;;;;5033173;28;20241;-66
2023/05/18 17:12:01;;;;;;;0.70;0.70;;;16.60;99.90;19.60;102504.00;;;;5034047;28;20242;-66
2023/05/18 17:15:06;;;;;;;0.77;0.67;;;16.80;99.90;19.70;102448.00;;;;5032687;28;20558;-66
2023/05/18 17:18:10;;;;;;;2.83;1.63;;;16.70;99.90;18.90;102497.00;;;;5030950;28;20192;-66
2023/05/18 17:21:05;;;;;;;1.53;0.90;;;16.70;99.90;18.90;102454.00;;;;5031609;28;20182;-66
2023/05/18 17:23:56;;;;;;;1.90;1.80;;;16.50;99.90;18.70;102506.00;;;;5032813;28;20264;-66
2023/05/18 17:27:02;;;;;;;0.43;0.43;;;16.40;99.90;19.10;102505.00;;;;5032705;28;20220;-66
2023/05/18 17:29:50;;;;;;;0.40;0.40;;;16.40;99.90;19.10;102499.00;;;;5027829;28;20229;-66
2023/05/18 17:32:55;;;;;;;2.50;1.77;;;16.40;99.90;18.30;102514.00;;;;5032210;28;20301;-66
2023/05/18 17:36:19;;;;;;;0.83;0.37;;;16.30;99.90;19.10;102510.00;;;;5029162;28;20674;-66
2023/05/18 17:39:20;;;;;;;0.73;0.40;;;16.30;99.90;18.70;102511.00;;;;5032141;28;20189;-66
2023/05/18 17:42:09;;;;;;;4.90;1.13;;;16.30;99.90;19.00;102508.00;;;;5031628;28;20187;-66
2023/05/18 17:44:58;;;;;;;1.13;0.60;;;16.20;99.90;18.70;102506.00;;;;5020527;28;20526;-66
2023/05/18 17:48:14;;;;;;;0.77;0.67;;;16.20;99.90;18.50;102523.00;;;;5027549;28;20277;-65
2023/05/18 17:50:44;;;;;;;0.30;0.30;;;16.10;99.90;18.60;102513.00;;;;5031629;28;20197;-68
2023/05/18 17:53:27;;;;;;;0.63;0.63;;;16.00;99.90;18.40;102514.00;;;;5031868;28;20219;-65
2023/05/18 17:56:45;;;;;;;0.60;0.60;;;16.00;99.90;18.60;102517.00;;;;5032594;28;20497;-65
2023/05/18 17:59:51;;;;;;;0.97;0.80;;;16.00;99.90;18.40;102513.00;;;;5031783;28;20185;-68
2023/05/18 18:02:47;;;;;;;3.80;1.23;;;16.00;99.90;18.80;102501.00;;;;5031145;28;20239;-66
2023/05/18 18:05:44;;;;;;;1.10;0.83;;;16.00;99.90;19.20;102498.00;;;;5026001;28;20205;-67
2023/05/18 18:08:36;;;;;;;0.57;0.57;;;16.10;99.90;18.60;102500.00;;;;5029979;28;20207;-66
2023/05/18 18:11:33;;;;;;;0.20;0.20;;;16.00;99.90;19.00;102509.00;;;;5061006;28;20189;-67
2023/05/18 18:14:42;;;;;;;0.30;0.30;;;16.10;99.90;18.50;102511.00;;;;5032989;28;20183;-66
2023/05/18 18:17:45;;;;;;;1.07;0.97;;;16.00;99.90;18.60;102505.00;;;;5030971;28;20178;-66
2023/05/18 18:20:14;;;;;;;0.97;0.97;;;16.00;99.90;18.40;102512.00;;;;5040710;28;20189;-66
2023/05/18 18:23:18;;;;;;;0.93;0.77;;;16.00;99.90;18.60;102513.00;;;;5039360;28;20193;-66
2023/05/18 18:26:10;;;;;;;0.10;0.10;;;16.00;99.90;18.90;102508.00;;;;5024088;28;20574;-66
2023/05/18 18:29:03;;;;;;;0.20;0.20;;;15.90;99.90;18.90;102503.00;;;;5042942;28;20255;-66
2023/05/18 18:31:49;;;;;;;2.10;1.40;;;15.90;99.90;18.80;102511.00;;;;5047418;28;20770;-66
2023/05/18 18:34:23;;;;;;;1.83;0.93;;;15.90;99.90;18.70;102522.00;;;;5041963;28;20990;-66
2023/05/18 18:36:55;;;;;;;1.50;0.70;;;15.90;99.90;18.50;102507.00;;;;5038443;28;20574;-66
2023/05/18 18:39:21;;;;;;;0.10;0.10;;;15.80;99.90;19.60;102509.00;;;;5056150;28;20193;-66
2023/05/18 18:42:00;;;;;;;2.43;0.87;;;16.00;99.90;19.00;102478.00;;;;5040895;28;20188;-66
2023/05/18 18:44:28;;;;;;;1.03;1.03;;;16.10;99.90;18.20;102527.00;;;;5041551;28;20198;-66
2023/05/18 18:47:03;;;;;;;1.47;1.37;;;15.80;99.90;18.30;102516.00;;;;5040389;28;20954;-66
2023/05/18 18:49:52;;;;;;;0.30;0.30;;;15.70;99.90;19.20;102520.00;;;;5055860;28;20180;-66
2023/05/18 18:52:30;;;;;;;5.07;1.17;;;15.80;99.90;18.20;102531.00;;;;5041263;28;20224;-66
2023/05/18 18:54:58;;;;;;;0.57;0.57;;;15.70;99.90;17.90;102527.00;;;;5064950;28;20185;-66
2023/05/18 18:57:36;;;;;;;0.60;0.60;;;15.40;99.90;18.10;102525.00;;;;5051463;28;20266;-66
2023/05/18 19:00:05;;;;;;;0.47;0.47;;;15.40;99.90;17.90;102541.00;;;;5046136;28;20184;-65
2023/05/18 19:02:40;;;;;;;3.83;0.70;;;15.30;99.90;18.30;102480.00;;;;5058801;28;20188;-66
2023/05/18 19:05:51;;;;;;;0.97;0.77;;;15.30;99.90;18.00;102541.00;;;;5049656;28;20256;-66
2023/05/18 19:08:42;;;;;;;0.10;0.10;;;15.30;99.90;18.30;102543.00;;;;5044303;28;20223;-66
2023/05/18 19:11:17;;;;;;;0.13;0.13;;;15.40;99.90;18.40;102546.00;;;;5044045;28;20187;-66